createdAt,value
2022-10-13T00:00:02.271Z,22.55
2022-10-13T00:00:46.272Z,46.50
2022-10-13T00:01:24.830Z,23.20
2022-10-13T00:01:57.103Z,31.23
2022-10-13T00:02:29.226Z,22.65
2022-10-13T00:03:02.106Z,26.35
2022-10-13T00:03:36.787Z,30.17
2022-10-13T00:04:09.002Z,32.95
2022-10-13T00:04:41.242Z,23.45
2022-10-13T00:05:15.932Z,29.92
2022-10-13T00:05:49.646Z,28.17
2022-10-13T00:06:24.002Z,30.60
2022-10-13T00:06:58.773Z,28.35
2022-10-13T00:07:31.414Z,25.98
2022-10-13T00:08:03.573Z,26.25
2022-10-13T00:08:39.340Z,32.15
2022-10-13T00:09:11.467Z,24.20
2022-10-13T00:09:43.563Z,41.50
2022-10-13T00:10:18.319Z,30.90
2022-10-13T00:10:54.271Z,28.05
2022-10-13T00:11:30.359Z,27.05
2022-10-13T00:12:05.205Z,28.85
2022-10-13T00:12:37.609Z,34.47
2022-10-13T00:13:10.585Z,15.07
2022-10-13T00:13:46.166Z,28.25
2022-10-13T00:14:18.322Z,33.03
2022-10-13T00:14:50.503Z,22.40
2022-10-13T00:15:26.181Z,27.27
2022-10-13T00:15:58.383Z,32.95
2022-10-13T00:16:33.288Z,33.83
2022-10-13T00:17:07.959Z,28.90
2022-10-13T00:17:41.914Z,26.40
2022-10-13T00:18:14.389Z,25.30
2022-10-13T00:18:49.688Z,34.88
2022-10-13T00:19:21.852Z,27.85
2022-10-13T00:19:53.983Z,26.15
2022-10-13T00:20:28.742Z,29.73
2022-10-13T00:21:00.887Z,28.05
2022-10-13T00:21:33.118Z,25.85
2022-10-13T00:22:07.833Z,25.77
2022-10-13T00:22:39.954Z,24.90
2022-10-13T00:23:12.182Z,28.98
2022-10-13T00:23:47.183Z,28.50
2022-10-13T00:24:24.190Z,34.85
2022-10-13T00:24:56.291Z,34.38
2022-10-13T00:25:31.067Z,28.83
2022-10-13T00:26:09.110Z,23.40
2022-10-13T00:26:41.262Z,30.08
2022-10-13T00:27:24.717Z,32.30
2022-10-13T00:27:56.813Z,34.50
2022-10-13T00:29:12.197Z,31.13
2022-10-13T00:29:44.465Z,34.45
2022-10-13T00:30:19.394Z,30.60
2022-10-13T00:30:52.419Z,35.72
2022-10-13T00:31:26.615Z,33.45
2022-10-13T00:32:01.375Z,31.05
2022-10-13T00:32:33.557Z,27.92
2022-10-13T00:33:06.560Z,31.10
2022-10-13T00:33:41.299Z,31.20
2022-10-13T00:34:13.646Z,25.52
2022-10-13T00:34:45.798Z,31.63
2022-10-13T00:35:20.479Z,29.15
2022-10-13T00:35:52.647Z,22.83
2022-10-13T00:36:27.839Z,27.00
2022-10-13T00:37:00.045Z,21.27
2022-10-13T00:37:32.259Z,18.70
2022-10-13T00:38:06.926Z,31.52
2022-10-13T00:38:39.070Z,27.73
2022-10-13T00:39:11.200Z,21.85
2022-10-13T00:39:46.001Z,33.97
2022-10-13T00:40:19.302Z,27.73
2022-10-13T00:40:55.833Z,22.92
2022-10-13T00:41:30.583Z,36.17
2022-10-13T00:42:03.174Z,18.60
2022-10-13T00:42:37.905Z,30.67
2022-10-13T00:43:16.591Z,23.50
2022-10-13T00:43:52.319Z,33.50
2022-10-13T00:44:58.657Z,28.30
2022-10-13T00:45:30.804Z,27.63
2022-10-13T00:46:02.946Z,27.88
2022-10-13T00:46:39.758Z,34.80
2022-10-13T00:47:11.959Z,23.63
2022-10-13T00:47:48.542Z,27.15
2022-10-13T00:48:28.134Z,22.55
2022-10-13T00:49:05.220Z,16.13
2022-10-13T00:49:37.517Z,20.52
2022-10-13T00:50:15.225Z,34.15
2022-10-13T00:50:47.790Z,36.25
2022-10-13T00:51:22.730Z,28.75
2022-10-13T00:51:58.254Z,29.17
2022-10-13T00:52:32.219Z,33.78
2022-10-13T00:53:05.951Z,24.00
2022-10-13T00:53:42.533Z,36.17
2022-10-13T00:54:17.839Z,36.80
2022-10-13T00:54:50.841Z,29.50
2022-10-13T00:55:28.897Z,19.00
2022-10-13T00:56:01.577Z,21.73
2022-10-13T00:56:43.008Z,32.03
2022-10-13T00:57:15.831Z,37.75
2022-10-13T00:57:54.753Z,28.35
2022-10-13T00:58:38.943Z,33.35
2022-10-13T00:59:17.489Z,24.02
2022-10-13T00:59:50.170Z,26.10
2022-10-13T01:00:26.683Z,20.55
2022-10-13T01:01:00.021Z,31.98
2022-10-13T01:01:32.470Z,23.95
2022-10-13T01:02:07.504Z,20.38
2022-10-13T01:02:39.900Z,26.90
2022-10-13T01:03:12.061Z,16.98
2022-10-13T01:03:46.932Z,26.85
2022-10-13T01:04:22.834Z,24.10
2022-10-13T01:04:56.993Z,31.70
2022-10-13T01:05:33.402Z,31.67
2022-10-13T01:06:07.723Z,30.45
2022-10-13T01:06:40.790Z,26.63
2022-10-13T01:07:14.957Z,25.50
2022-10-13T01:07:51.570Z,27.85
2022-10-13T01:08:27.051Z,25.52
2022-10-13T01:09:02.120Z,32.30
2022-10-13T01:09:38.050Z,23.73
2022-10-13T01:10:10.156Z,20.35
2022-10-13T01:10:56.148Z,26.08
2022-10-13T01:11:58.774Z,24.95
2022-10-13T01:12:43.169Z,19.38
2022-10-13T01:13:22.561Z,30.48
2022-10-13T01:14:06.438Z,33.83
2022-10-13T01:14:48.364Z,32.67
2022-10-13T01:15:28.335Z,30.40
2022-10-13T01:16:10.808Z,21.15
2022-10-13T01:16:55.035Z,24.83
2022-10-13T01:17:33.523Z,31.23
2022-10-13T01:18:19.157Z,35.67
2022-10-13T01:19:00.910Z,22.30
2022-10-13T01:19:56.340Z,40.50
2022-10-13T01:20:55.773Z,33.30
2022-10-13T01:21:33.423Z,33.88
2022-10-13T01:22:23.854Z,36.60
2022-10-13T01:23:12.638Z,27.23
2022-10-13T01:24:25.549Z,26.63
2022-10-13T01:25:07.353Z,30.20
2022-10-13T01:26:01.667Z,34.90
2022-10-13T01:27:03.109Z,25.05
2022-10-13T01:27:58.918Z,26.55
2022-10-13T01:28:51.316Z,32.20
2022-10-13T01:30:02.435Z,24.48
2022-10-13T01:31:20.557Z,22.70
2022-10-13T01:32:01.513Z,29.50
2022-10-13T01:32:47.043Z,28.27
2022-10-13T01:33:30.709Z,29.67
2022-10-13T01:34:11.315Z,30.10
2022-10-13T01:34:55.525Z,30.83
2022-10-13T01:35:41.503Z,30.77
2022-10-13T01:36:27.633Z,30.00
2022-10-13T01:37:08.323Z,22.98
2022-10-13T01:37:47.696Z,21.38
2022-10-13T01:38:33.025Z,16.25
2022-10-13T01:39:14.503Z,29.75
2022-10-13T01:39:56.454Z,37.58
2022-10-13T01:40:33.430Z,26.00
2022-10-13T01:41:16.489Z,25.65
2022-10-13T01:41:52.712Z,38.45
2022-10-13T01:42:30.387Z,32.30
2022-10-13T01:43:09.847Z,18.75
2022-10-13T01:43:46.942Z,27.30
2022-10-13T01:44:28.412Z,44.22
2022-10-13T01:45:03.609Z,23.05
2022-10-13T01:45:44.922Z,26.27
2022-10-13T01:46:24.955Z,33.28
2022-10-13T01:46:57.876Z,37.75
2022-10-13T01:47:32.601Z,14.02
2022-10-13T01:48:09.010Z,27.20
2022-10-13T01:48:46.400Z,30.77
2022-10-13T01:49:22.214Z,37.20
2022-10-13T01:49:59.222Z,30.98
2022-10-13T01:50:34.730Z,28.48
2022-10-13T01:51:09.828Z,30.88
2022-10-13T01:51:45.457Z,30.35
2022-10-13T01:52:20.814Z,29.70
2022-10-13T01:52:53.522Z,24.40
2022-10-13T01:53:29.384Z,31.55
2022-10-13T01:54:01.567Z,20.27
2022-10-13T01:54:33.863Z,24.13
2022-10-13T01:55:10.697Z,33.50
2022-10-13T01:55:53.441Z,19.00
2022-10-13T01:56:25.568Z,37.42
2022-10-13T01:57:00.318Z,38.33
2022-10-13T01:57:36.160Z,29.00
2022-10-13T01:58:11.231Z,27.85
2022-10-13T01:58:47.355Z,40.25
2022-10-13T01:59:20.096Z,35.75
2022-10-13T01:59:52.419Z,33.42
2022-10-13T02:00:28.058Z,32.03
2022-10-13T02:01:14.084Z,29.80
2022-10-13T02:01:59.833Z,38.00
2022-10-13T02:02:37.637Z,59.40
2022-10-13T02:03:17.945Z,43.55
2022-10-13T02:04:04.083Z,21.92
2022-10-13T02:04:48.316Z,33.13
2022-10-13T02:05:29.635Z,33.97
2022-10-13T02:06:16.064Z,31.05
2022-10-13T02:06:53.717Z,37.10
2022-10-13T02:07:31.339Z,32.15
2022-10-13T02:08:11.587Z,26.60
2022-10-13T02:09:26.390Z,35.03
2022-10-13T02:10:08.725Z,33.58
2022-10-13T02:10:47.640Z,19.90
2022-10-13T02:11:22.348Z,28.48
2022-10-13T02:12:04.719Z,31.27
2022-10-13T02:12:47.121Z,28.90
2022-10-13T02:13:25.188Z,38.08
2022-10-13T02:14:06.335Z,27.55
2022-10-13T02:14:42.562Z,32.60
2022-10-13T02:15:20.064Z,68.57
2022-10-13T02:15:58.056Z,23.52
2022-10-13T02:16:37.368Z,17.92
2022-10-13T02:17:10.541Z,23.67
2022-10-13T02:17:47.609Z,64.40
2022-10-13T02:18:25.944Z,17.30
2022-10-13T02:18:58.807Z,19.40
2022-10-13T02:19:36.291Z,13.18
2022-10-13T02:20:10.484Z,20.70
2022-10-13T02:20:44.485Z,19.33
2022-10-13T02:21:20.261Z,12.55
2022-10-13T02:21:53.518Z,27.00
2022-10-13T02:22:32.830Z,22.70
2022-10-13T02:23:15.154Z,26.40
2022-10-13T02:23:47.429Z,36.53
2022-10-13T02:24:19.874Z,13.43
2022-10-13T02:24:52.453Z,22.90
2022-10-13T02:25:28.687Z,14.20
2022-10-13T02:26:01.783Z,35.03
2022-10-13T02:26:35.350Z,25.35
2022-10-13T02:27:13.974Z,16.58
2022-10-13T02:27:46.245Z,13.77
2022-10-13T02:28:19.380Z,18.48
2022-10-13T02:28:55.290Z,21.30
2022-10-13T02:29:27.417Z,15.50
2022-10-13T02:29:59.637Z,15.95
2022-10-13T02:30:37.453Z,21.60
2022-10-13T02:31:09.892Z,22.42
2022-10-13T02:31:45.852Z,13.23
2022-10-13T02:32:21.046Z,18.73
2022-10-13T02:32:53.549Z,20.42
2022-10-13T02:33:25.682Z,14.20
2022-10-13T02:34:00.410Z,18.80
2022-10-13T02:34:32.494Z,20.70
2022-10-13T02:35:06.285Z,47.55
2022-10-13T02:35:41.416Z,19.60
2022-10-13T02:36:13.552Z,23.13
2022-10-13T02:36:45.657Z,20.73
2022-10-13T02:37:20.779Z,16.17
2022-10-13T02:37:52.994Z,32.70
2022-10-13T02:38:25.167Z,20.42
2022-10-13T02:38:59.983Z,27.40
2022-10-13T02:39:32.143Z,20.20
2022-10-13T02:40:06.218Z,14.70
2022-10-13T02:40:41.061Z,30.55
2022-10-13T02:41:13.146Z,25.17
2022-10-13T02:41:45.279Z,26.95
2022-10-13T02:42:18.004Z,17.38
2022-10-13T02:42:53.205Z,20.35
2022-10-13T02:43:25.635Z,18.30
2022-10-13T02:43:57.744Z,29.60
2022-10-13T02:44:39.536Z,24.75
2022-10-13T02:45:11.680Z,22.08
2022-10-13T02:45:43.854Z,13.82
2022-10-13T02:46:18.589Z,21.05
2022-10-13T02:46:53.773Z,24.98
2022-10-13T02:47:25.926Z,21.67
2022-10-13T02:48:00.771Z,19.85
2022-10-13T02:48:32.973Z,16.65
2022-10-13T02:49:05.098Z,20.20
2022-10-13T02:49:39.835Z,22.83
2022-10-13T02:50:12.214Z,24.75
2022-10-13T02:50:44.323Z,20.50
2022-10-13T02:51:19.018Z,26.13
2022-10-13T02:51:51.136Z,18.90
2022-10-13T02:52:23.442Z,45.25
2022-10-13T02:52:58.224Z,21.13
2022-10-13T02:53:30.406Z,36.03
2022-10-13T02:54:02.572Z,25.30
2022-10-13T02:54:37.290Z,19.75
2022-10-13T02:55:09.650Z,22.40
2022-10-13T02:55:43.344Z,14.77
2022-10-13T02:56:19.020Z,19.13
2022-10-13T02:56:51.202Z,16.90
2022-10-13T02:57:23.635Z,19.55
2022-10-13T02:57:57.950Z,15.88
2022-10-13T02:58:32.615Z,25.88
2022-10-13T02:59:06.506Z,19.83
2022-10-13T02:59:38.641Z,23.88
2022-10-13T03:00:14.949Z,16.55
2022-10-13T03:00:47.113Z,14.45
2022-10-13T03:01:19.268Z,23.88
2022-10-13T03:01:56.957Z,17.73
2022-10-13T03:02:29.222Z,25.33
2022-10-13T03:03:01.598Z,22.42
2022-10-13T03:03:36.308Z,34.05
2022-10-13T03:04:09.198Z,23.08
2022-10-13T03:04:41.337Z,13.48
2022-10-13T03:05:16.066Z,51.78
2022-10-13T03:05:48.167Z,22.73
2022-10-13T03:06:21.720Z,30.25
2022-10-13T03:06:56.420Z,28.42
2022-10-13T03:07:28.550Z,20.80
2022-10-13T03:08:00.681Z,35.90
2022-10-13T03:08:36.841Z,35.92
2022-10-13T03:09:09.018Z,21.92
2022-10-13T03:09:41.942Z,31.15
2022-10-13T03:10:16.602Z,29.25
2022-10-13T03:10:48.820Z,23.85
2022-10-13T03:11:20.975Z,14.07
2022-10-13T03:11:55.643Z,23.50
2022-10-13T03:12:27.806Z,28.08
2022-10-13T03:12:59.884Z,18.92
2022-10-13T03:13:34.606Z,22.80
2022-10-13T03:14:11.760Z,19.55
2022-10-13T03:14:43.923Z,56.78
2022-10-13T03:15:18.866Z,39.45
2022-10-13T03:15:52.188Z,20.05
2022-10-13T03:16:24.391Z,45.45
2022-10-13T03:17:01.706Z,41.60
2022-10-13T03:17:33.883Z,40.30
2022-10-13T03:18:06.513Z,20.13
2022-10-13T03:18:41.207Z,68.13
2022-10-13T03:19:13.360Z,73.75
2022-10-13T03:19:45.517Z,64.05
2022-10-13T03:20:24.806Z,65.32
2022-10-13T03:20:58.352Z,74.43
2022-10-13T03:21:30.670Z,59.65
2022-10-13T03:22:05.376Z,39.30
2022-10-13T03:22:37.528Z,73.72
2022-10-13T03:23:09.702Z,69.95
2022-10-13T03:23:44.430Z,42.92
2022-10-13T03:24:16.621Z,80.75
2022-10-13T03:24:48.728Z,24.55
2022-10-13T03:25:23.415Z,22.13
2022-10-13T03:25:56.963Z,18.75
2022-10-13T03:26:29.068Z,31.48
2022-10-13T03:27:03.988Z,32.58
2022-10-13T03:27:36.271Z,32.78
2022-10-13T03:28:08.443Z,20.67
2022-10-13T03:28:44.267Z,44.97
2022-10-13T03:29:18.390Z,24.83
2022-10-13T03:29:53.094Z,28.00
2022-10-13T03:30:25.542Z,26.60
2022-10-13T03:31:01.888Z,44.42
2022-10-13T03:31:36.586Z,34.53
2022-10-13T03:32:11.315Z,30.58
2022-10-13T03:32:43.651Z,42.40
2022-10-13T03:33:18.802Z,33.65
2022-10-13T03:33:51.692Z,25.02
2022-10-13T03:34:23.934Z,30.30
2022-10-13T03:34:56.175Z,43.60
2022-10-13T03:35:30.857Z,34.65
2022-10-13T03:36:05.878Z,44.28
2022-10-13T03:36:40.590Z,32.72
2022-10-13T03:37:12.701Z,22.65
2022-10-13T03:37:46.752Z,32.92
2022-10-13T03:38:21.450Z,30.77
2022-10-13T03:38:53.562Z,52.78
2022-10-13T03:39:26.006Z,25.35
2022-10-13T03:39:58.193Z,28.70
2022-10-13T03:40:32.873Z,28.63
2022-10-13T03:41:06.257Z,27.77
2022-10-13T03:41:38.362Z,37.10
2022-10-13T03:42:13.279Z,27.75
2022-10-13T03:42:46.056Z,26.17
2022-10-13T03:43:18.193Z,34.45
2022-10-13T03:43:53.092Z,34.83
2022-10-13T03:44:25.421Z,19.98
2022-10-13T03:44:57.565Z,43.90
2022-10-13T03:45:32.255Z,31.40
2022-10-13T03:46:05.914Z,31.45
2022-10-13T03:46:38.100Z,19.60
2022-10-13T03:47:15.431Z,27.80
2022-10-13T03:47:47.658Z,27.17
2022-10-13T03:48:19.887Z,23.08
2022-10-13T03:48:54.691Z,25.35
2022-10-13T03:49:26.991Z,26.08
2022-10-13T03:49:59.160Z,40.60
2022-10-13T03:50:33.890Z,20.65
2022-10-13T03:51:07.503Z,19.42
2022-10-13T03:51:40.209Z,26.45
2022-10-13T03:52:14.967Z,18.08
2022-10-13T03:52:47.137Z,27.75
2022-10-13T03:53:19.321Z,25.58
2022-10-13T03:53:55.626Z,21.65
2022-10-13T03:54:27.972Z,23.23
2022-10-13T03:55:00.125Z,31.80
2022-10-13T03:55:34.807Z,34.15
2022-10-13T03:56:08.062Z,27.88
2022-10-13T03:56:50.431Z,28.98
2022-10-13T03:57:22.605Z,18.80
2022-10-13T03:57:54.731Z,40.10
2022-10-13T03:58:30.186Z,33.30
2022-10-13T03:59:05.038Z,27.48
2022-10-13T03:59:39.869Z,32.38
2022-10-13T04:00:13.853Z,33.20
2022-10-13T04:00:46.200Z,31.45
2022-10-13T04:01:18.397Z,26.88
2022-10-13T04:01:54.380Z,20.30
2022-10-13T04:02:29.151Z,51.55
2022-10-13T04:03:03.545Z,37.55
2022-10-13T04:03:38.258Z,37.38
2022-10-13T04:04:11.599Z,29.25
2022-10-13T04:04:47.093Z,41.92
2022-10-13T04:05:21.749Z,23.73
2022-10-13T04:05:53.883Z,47.72
2022-10-13T04:06:26.970Z,46.45
2022-10-13T04:07:01.699Z,18.65
2022-10-13T04:07:33.901Z,57.72
2022-10-13T04:08:10.420Z,38.53
2022-10-13T04:08:45.351Z,43.95
2022-10-13T04:09:17.607Z,29.38
2022-10-13T04:09:49.926Z,35.75
2022-10-13T04:10:24.579Z,46.75
2022-10-13T04:11:00.354Z,44.38
2022-10-13T04:11:32.767Z,28.70
2022-10-13T04:12:07.973Z,36.92
2022-10-13T04:12:40.068Z,33.33
2022-10-13T04:13:12.214Z,24.25
2022-10-13T04:13:49.163Z,24.35
2022-10-13T04:14:21.396Z,33.63
2022-10-13T04:14:56.144Z,26.23
2022-10-13T04:15:28.242Z,31.95
2022-10-13T04:16:03.353Z,41.83
2022-10-13T04:16:39.822Z,56.20
2022-10-13T04:17:12.406Z,51.50
2022-10-13T04:17:47.166Z,34.95
2022-10-13T04:18:21.947Z,30.70
2022-10-13T04:18:57.574Z,40.40
2022-10-13T04:19:29.703Z,26.77
2022-10-13T04:20:04.511Z,32.00
2022-10-13T04:20:38.635Z,42.97
2022-10-13T04:21:11.810Z,45.55
2022-10-13T04:21:46.685Z,44.67
2022-10-13T04:22:19.183Z,44.67
2022-10-13T04:22:53.199Z,31.20
2022-10-13T04:23:28.016Z,45.95
2022-10-13T04:24:01.090Z,48.95
2022-10-13T04:24:33.256Z,52.45
2022-10-13T04:25:09.750Z,51.05
2022-10-13T04:25:41.945Z,46.55
2022-10-13T04:26:19.068Z,76.10
2022-10-13T04:26:53.851Z,52.38
2022-10-13T04:27:27.036Z,34.50
2022-10-13T04:27:59.467Z,33.90
2022-10-13T04:28:36.044Z,36.22
2022-10-13T04:29:10.135Z,28.17
2022-10-13T04:29:42.452Z,46.15
2022-10-13T04:30:17.812Z,22.92
2022-10-13T04:30:50.351Z,40.20
2022-10-13T04:31:23.171Z,32.08
2022-10-13T04:31:57.942Z,30.90
2022-10-13T04:32:30.054Z,29.92
2022-10-13T04:33:04.914Z,70.22
2022-10-13T04:33:37.057Z,34.30
2022-10-13T04:34:12.379Z,40.65
2022-10-13T04:34:44.804Z,53.92
2022-10-13T04:35:17.631Z,48.35
2022-10-13T04:35:52.291Z,45.25
2022-10-13T04:36:24.689Z,69.40
2022-10-13T04:36:59.371Z,46.20
2022-10-13T04:37:31.503Z,41.58
2022-10-13T04:38:03.863Z,32.13
2022-10-13T04:38:38.965Z,31.13
2022-10-13T04:39:11.062Z,34.42
2022-10-13T04:39:43.207Z,32.15
2022-10-13T04:40:18.431Z,34.20
2022-10-13T04:40:50.560Z,30.70
2022-10-13T04:41:23.394Z,63.13
2022-10-13T04:41:58.260Z,28.35
2022-10-13T04:42:30.423Z,44.22
2022-10-13T04:43:02.633Z,37.15
2022-10-13T04:43:37.506Z,33.67
2022-10-13T04:44:09.644Z,62.72
2022-10-13T04:44:42.081Z,25.38
2022-10-13T04:45:19.961Z,35.22
2022-10-13T04:46:00.007Z,47.03
2022-10-13T04:46:32.188Z,65.55
2022-10-13T04:47:07.314Z,60.08
2022-10-13T04:47:39.844Z,82.43
2022-10-13T04:48:14.786Z,58.10
2022-10-13T04:48:50.250Z,46.08
2022-10-13T04:49:22.510Z,56.28
2022-10-13T04:49:54.685Z,53.40
2022-10-13T04:50:30.522Z,53.97
2022-10-13T04:51:09.109Z,51.00
2022-10-13T04:51:41.276Z,43.40
2022-10-13T04:52:15.957Z,50.97
2022-10-13T04:52:49.965Z,49.78
2022-10-13T04:53:24.658Z,33.58
2022-10-13T04:54:01.210Z,51.28
2022-10-13T04:54:33.321Z,56.67
2022-10-13T04:55:06.620Z,48.15
2022-10-13T04:55:41.320Z,49.70
2022-10-13T04:56:15.410Z,50.92
2022-10-13T04:56:50.152Z,53.80
2022-10-13T04:57:22.293Z,50.70
2022-10-13T04:57:54.377Z,40.33
2022-10-13T04:58:29.050Z,35.00
2022-10-13T04:59:06.632Z,32.28
2022-10-13T04:59:38.778Z,44.85
2022-10-13T05:00:14.745Z,72.68
2022-10-13T05:00:46.970Z,72.95
2022-10-13T05:01:22.514Z,39.92
2022-10-13T05:01:57.684Z,44.00
2022-10-13T05:02:29.832Z,51.67
2022-10-13T05:03:01.929Z,52.70
2022-10-13T05:03:39.285Z,47.30
2022-10-13T05:04:11.832Z,61.92
2022-10-13T05:04:43.964Z,68.88
2022-10-13T05:05:18.858Z,24.80
2022-10-13T05:05:51.229Z,45.28
2022-10-13T05:06:25.154Z,47.92
2022-10-13T05:07:17.454Z,49.38
2022-10-13T05:07:50.998Z,47.22
2022-10-13T05:08:23.200Z,38.78
2022-10-13T05:08:58.149Z,57.20
2022-10-13T05:09:30.300Z,44.67
2022-10-13T05:10:02.454Z,47.55
2022-10-13T05:10:37.246Z,42.63
2022-10-13T05:11:09.547Z,34.80
2022-10-13T05:11:41.837Z,42.65
2022-10-13T05:12:16.615Z,48.38
2022-10-13T05:12:48.799Z,33.28
2022-10-13T05:13:21.071Z,32.58
2022-10-13T05:13:58.327Z,59.83
2022-10-13T05:14:32.354Z,52.30
2022-10-13T05:15:06.538Z,75.80
2022-10-13T05:15:42.310Z,82.50
2022-10-13T05:16:16.343Z,57.45
2022-10-13T05:16:49.228Z,72.00
2022-10-13T05:17:24.040Z,28.88
2022-10-13T05:17:56.188Z,39.20
2022-10-13T05:18:28.302Z,51.17
2022-10-13T05:19:07.792Z,43.83
2022-10-13T05:19:40.104Z,52.45
2022-10-13T05:20:12.825Z,44.30
2022-10-13T05:20:47.693Z,37.33
2022-10-13T05:21:22.198Z,60.78
2022-10-13T05:21:54.295Z,57.42
2022-10-13T05:22:30.803Z,49.58
2022-10-13T05:23:03.061Z,37.97
2022-10-13T05:23:35.380Z,72.05
2022-10-13T05:24:13.787Z,79.18
2022-10-13T05:24:46.239Z,76.75
2022-10-13T05:25:18.901Z,53.47
2022-10-13T05:25:53.720Z,48.20
2022-10-13T05:26:29.302Z,45.72
2022-10-13T05:27:01.610Z,52.83
2022-10-13T05:27:36.368Z,52.50
2022-10-13T05:28:10.799Z,51.30
2022-10-13T05:28:43.844Z,51.08
2022-10-13T05:29:19.098Z,56.30
2022-10-13T05:29:51.432Z,45.70
2022-10-13T05:30:26.497Z,63.10
2022-10-13T05:31:08.448Z,56.38
2022-10-13T05:31:43.259Z,41.03
2022-10-13T05:32:15.534Z,63.75
2022-10-13T05:32:51.564Z,32.78
2022-10-13T05:33:29.695Z,34.08
2022-10-13T05:34:04.412Z,33.10
2022-10-13T05:34:39.170Z,36.47
2022-10-13T05:35:11.323Z,43.78
2022-10-13T05:35:45.693Z,26.45
2022-10-13T05:36:23.219Z,49.33
2022-10-13T05:36:55.362Z,25.13
2022-10-13T05:37:27.690Z,54.15
2022-10-13T05:38:02.371Z,42.25
2022-10-13T05:38:36.666Z,48.28
2022-10-13T05:39:10.133Z,70.03
2022-10-13T05:39:48.622Z,83.97
2022-10-13T05:40:21.570Z,29.00
2022-10-13T05:40:53.660Z,55.83
2022-10-13T05:41:30.218Z,86.15
2022-10-13T05:42:02.330Z,44.00
2022-10-13T05:42:36.159Z,47.67
2022-10-13T05:43:08.320Z,57.05
2022-10-13T05:43:44.647Z,75.80
2022-10-13T05:44:17.594Z,84.55
2022-10-13T05:44:58.739Z,80.90
2022-10-13T05:45:35.807Z,52.00
2022-10-13T05:46:08.698Z,80.57
2022-10-13T05:46:41.497Z,53.00
2022-10-13T05:47:16.166Z,51.63
2022-10-13T05:47:50.622Z,96.80
2022-10-13T05:48:22.763Z,64.15
2022-10-13T05:48:57.458Z,61.60
2022-10-13T05:49:36.484Z,75.63
2022-10-13T05:50:09.043Z,75.75
2022-10-13T05:50:44.801Z,100.05
2022-10-13T05:51:22.989Z,91.00
2022-10-13T05:52:00.089Z,68.82
2022-10-13T05:52:33.753Z,60.88
2022-10-13T05:53:08.446Z,51.22
2022-10-13T05:53:49.106Z,49.80
2022-10-13T05:54:30.259Z,71.85
2022-10-13T05:55:05.813Z,50.30
2022-10-13T05:55:38.630Z,54.05
2022-10-13T05:56:17.607Z,69.95
2022-10-13T05:56:54.603Z,86.25
2022-10-13T05:57:33.146Z,66.13
2022-10-13T05:58:05.368Z,83.90
2022-10-13T05:58:41.196Z,47.15
2022-10-13T05:59:21.359Z,44.80
2022-10-13T05:59:59.510Z,54.50
2022-10-13T06:00:34.357Z,46.90
2022-10-13T06:01:08.344Z,43.25
2022-10-13T06:01:42.375Z,62.95
2022-10-13T06:02:20.029Z,56.17
2022-10-13T06:02:59.678Z,53.35
2022-10-13T06:03:35.065Z,40.90
2022-10-13T06:04:13.019Z,52.50
2022-10-13T06:04:55.745Z,50.65
2022-10-13T06:05:28.646Z,47.33
2022-10-13T06:06:01.563Z,50.65
2022-10-13T06:06:36.795Z,58.67
2022-10-13T06:07:09.900Z,39.90
2022-10-13T06:07:46.491Z,43.42
2022-10-13T06:08:18.972Z,51.40
2022-10-13T06:08:51.973Z,30.58
2022-10-13T06:09:26.735Z,48.05
2022-10-13T06:09:59.368Z,43.15
2022-10-13T06:10:32.445Z,76.93
2022-10-13T06:11:08.482Z,44.20
2022-10-13T06:11:41.106Z,50.47
2022-10-13T06:12:15.847Z,59.92
2022-10-13T06:12:48.235Z,44.90
2022-10-13T06:13:20.404Z,47.47
2022-10-13T06:13:55.118Z,70.20
2022-10-13T06:14:27.262Z,75.15
2022-10-13T06:15:01.975Z,54.65
2022-10-13T06:15:34.142Z,78.28
2022-10-13T06:16:06.938Z,39.88
2022-10-13T06:16:42.701Z,76.03
2022-10-13T06:17:14.959Z,59.20
2022-10-13T06:17:48.469Z,61.55
2022-10-13T06:18:23.309Z,64.05
2022-10-13T06:18:55.581Z,59.50
2022-10-13T06:19:28.519Z,66.88
2022-10-13T06:20:06.268Z,44.67
2022-10-13T06:20:38.662Z,102.13
2022-10-13T06:21:10.823Z,71.43
2022-10-13T06:21:45.524Z,53.17
2022-10-13T06:22:18.086Z,47.58
2022-10-13T06:22:51.194Z,60.78
2022-10-13T06:23:25.960Z,75.40
2022-10-13T06:23:58.124Z,54.53
2022-10-13T06:24:30.634Z,40.90
2022-10-13T06:25:05.602Z,46.72
2022-10-13T06:25:37.759Z,71.53
2022-10-13T06:26:12.492Z,55.97
2022-10-13T06:26:44.619Z,69.35
2022-10-13T06:27:16.758Z,58.92
2022-10-13T06:27:52.197Z,58.95
2022-10-13T06:28:27.499Z,45.90
2022-10-13T06:29:00.289Z,60.88
2022-10-13T06:29:36.255Z,46.60
2022-10-13T06:30:09.774Z,59.33
2022-10-13T06:30:48.041Z,50.47
2022-10-13T06:31:20.446Z,42.03
2022-10-13T06:31:55.381Z,53.78
2022-10-13T06:32:27.592Z,58.92
2022-10-13T06:33:02.417Z,83.63
2022-10-13T06:33:35.539Z,31.55
2022-10-13T06:34:10.356Z,32.58
2022-10-13T06:34:42.539Z,47.28
2022-10-13T06:35:17.536Z,44.95
2022-10-13T06:35:52.730Z,44.75
2022-10-13T06:36:25.078Z,48.00
2022-10-13T06:36:57.174Z,43.83
2022-10-13T06:37:31.910Z,50.15
2022-10-13T06:38:04.023Z,40.40
2022-10-13T06:38:36.587Z,49.40
2022-10-13T06:39:12.104Z,62.22
2022-10-13T06:39:44.354Z,49.28
2022-10-13T06:40:17.108Z,54.20
2022-10-13T06:40:51.894Z,47.20
2022-10-13T06:41:26.143Z,70.20
2022-10-13T06:41:58.228Z,48.65
2022-10-13T06:42:37.242Z,57.63
2022-10-13T06:43:15.410Z,37.58
2022-10-13T06:43:47.598Z,49.92
2022-10-13T06:44:24.457Z,64.40
2022-10-13T06:44:57.148Z,55.63
2022-10-13T06:45:29.321Z,48.50
2022-10-13T06:46:04.702Z,57.58
2022-10-13T06:46:36.963Z,66.28
2022-10-13T06:47:09.130Z,30.98
2022-10-13T06:47:44.013Z,69.20
2022-10-13T06:48:16.285Z,40.80
2022-10-13T06:48:50.139Z,54.03
2022-10-13T06:49:26.605Z,46.88
2022-10-13T06:49:58.825Z,45.05
2022-10-13T06:50:33.732Z,56.83
2022-10-13T06:51:11.263Z,27.10
2022-10-13T06:51:43.388Z,50.47
2022-10-13T06:52:18.399Z,43.60
2022-10-13T06:52:50.841Z,63.80
2022-10-13T06:53:23.014Z,33.53
2022-10-13T06:53:58.611Z,47.10
2022-10-13T06:54:31.169Z,62.40
2022-10-13T06:55:03.652Z,47.78
2022-10-13T06:55:40.148Z,46.20
2022-10-13T06:56:13.068Z,33.67
2022-10-13T06:56:47.794Z,45.47
2022-10-13T06:57:19.922Z,43.35
2022-10-13T06:57:52.090Z,54.83
2022-10-13T06:58:26.875Z,60.22
2022-10-13T06:58:59.166Z,44.55
2022-10-13T06:59:31.301Z,47.78
2022-10-13T07:00:07.836Z,48.85
2022-10-13T07:00:41.689Z,72.88
2022-10-13T07:01:14.988Z,50.85
2022-10-13T07:01:51.861Z,71.05
2022-10-13T07:02:26.769Z,42.50
2022-10-13T07:03:01.478Z,79.70
2022-10-13T07:03:33.698Z,66.78
2022-10-13T07:04:06.412Z,66.65
2022-10-13T07:04:41.221Z,64.80
2022-10-13T07:05:13.413Z,60.83
2022-10-13T07:05:48.302Z,75.78
2022-10-13T07:06:23.678Z,52.20
2022-10-13T07:06:56.152Z,70.60
2022-10-13T07:07:28.412Z,76.30
2022-10-13T07:08:04.322Z,55.72
2022-10-13T07:08:36.906Z,65.60
2022-10-13T07:09:11.865Z,58.28
2022-10-13T07:09:44.075Z,73.32
2022-10-13T07:10:16.346Z,67.18
2022-10-13T07:10:51.134Z,49.78
2022-10-13T07:11:23.337Z,80.80
2022-10-13T07:11:59.918Z,62.63
2022-10-13T07:12:32.943Z,200.38
2022-10-13T07:13:07.738Z,79.53
2022-10-13T07:13:45.289Z,59.72
2022-10-13T07:14:23.243Z,63.75
2022-10-13T07:14:55.411Z,48.63
2022-10-13T07:15:27.620Z,58.42
2022-10-13T07:16:04.954Z,71.28
2022-10-13T07:16:37.124Z,47.30
2022-10-13T07:17:13.032Z,43.75
2022-10-13T07:17:45.607Z,64.38
2022-10-13T07:18:20.314Z,60.10
2022-10-13T07:18:52.466Z,53.03
2022-10-13T07:19:27.219Z,58.85
2022-10-13T07:20:01.326Z,68.60
2022-10-13T07:20:40.063Z,57.97
2022-10-13T07:21:15.087Z,59.05
2022-10-13T07:21:47.157Z,76.85
2022-10-13T07:22:21.941Z,77.03
2022-10-13T07:22:54.625Z,73.72
2022-10-13T07:23:27.698Z,52.50
2022-10-13T07:24:02.427Z,67.55
2022-10-13T07:24:34.604Z,38.67
2022-10-13T07:25:10.785Z,73.50
2022-10-13T07:25:42.999Z,51.10
2022-10-13T07:26:16.897Z,64.97
2022-10-13T07:26:51.640Z,62.75
2022-10-13T07:27:24.469Z,90.55
2022-10-13T07:28:01.362Z,80.07
2022-10-13T07:28:33.534Z,66.13
2022-10-13T07:29:05.728Z,54.20
2022-10-13T07:29:40.615Z,63.60
2022-10-13T07:30:13.278Z,62.78
2022-10-13T07:30:48.108Z,51.20
2022-10-13T07:31:21.288Z,51.67
2022-10-13T07:31:53.737Z,54.13
2022-10-13T07:32:28.756Z,71.47
2022-10-13T07:33:01.160Z,45.85
2022-10-13T07:33:33.331Z,60.97